Airfield :
LOGIN :

Register | Disclaimer

   EN    FR    IT 

 










Legend :    VFR   Marginal VFR   IFR   Intensive IFR   Very Intensive IFR
Visi :
Ceiling :
>= 8 km
>= 3000ft
5 to 8 km
1000 to 3000 ft
1500m to 5 km
500 to 1000 ft
800 to 1500m
200 to 500 ft
< 800m
< 200 ft
Symbols :   Thunderstorms  Fog  Heavy snow  Heavy precipitations  Wind > 20 kt
SIGMETs :     Misc.  Thunderstorms  Icing  Turbulence  Mountain Waves  Volcanic Ashes







- Airport Elevation : 287 ft
- Download approach charts


LFRL - Lanveoc Poulmic

CURRENT METAR :
  • 161500Z AUTO 01010KT CAVOK 19/15 Q1023 BECMG BKN014

EXPIRED METARs :
  • 161430Z AUTO 02009KT CAVOK 19/15 Q1023 BECMG BKN014
  • 161400Z AUTO 36009KT CAVOK 19/15 Q1023 BECMG BKN014
  • 161330Z AUTO 35009KT 9999 FEW014 19/15 Q1023 BECMG BKN014
  • 161300Z AUTO 34009KT 9999 FEW014 19/16 Q1024 BECMG BKN014
  • 161230Z AUTO 34008KT CAVOK 19/15 Q1024 BECMG BKN014

TAF TAF LFRL
Valid from the 16 at 12:00 until the 17 at 12:00 UTC


161100Z 1612/1712 02010KT 9999 BKN014
TEMPO 1612/1616 CAVOK
BECMG 1617/1619 BKN009
TEMPO 1619/1706 4000 BR BKN004
PROB30
TEMPO 1703/1709 2000 -DZ BR BKN002
BECMG 1709/1712 9999 NSW BKN015
No reported NOTAMs for that airfield.



MET'MAP, your aeronautical weather chart ! - Copyright ORBIFLY December 2007 - Disclaimer

ORBIFLY MET'MAP TEAM :

Programming & Development : Alexandra Zaïnal
Concept & Development : Baudouin d'Aumeries
Co-Development & Prog : Marc-Olivier Méhu
Technical & hardware support : Manuel Goepfert

Contact : metmap@orbifly.com




SOURCES & CREDITS :

   NOAA